CheckWX is a tool to help pilots better visualize weather data.  It is not intended as a substitute for an official pre-flight weather briefing.

06:55:01 UTC

CYYR METAR
Goose Bay Airport
Goose Bay, Canada
Current

55 mins ago

CYYR 210600Z 06002KT 15SM FEW007 OVC012 02/00 A2997 RMK SF2SF6 SLP150
Observed
May-21 @ 06:00 UTC
Wind
  • 060° at 2 KTS
Visibility
15 SM
Flight Rules
MVFR
Cloud Levels
  • Few at 700' AGL
  • Overcast at 1,200' AGL
Temperature
C / 36°F
Dewpoint
C / 32°F
Humidity
87%
Altimeter
29.97" Hg
Pressure
1014.92 hPa
Previous

2 hours ago

CYYR 210500Z 06005KT 15SM FEW007 OVC011 02/00 A2997 RMK SF2SF6 SLP151
Observed
May-21 @ 05:00 UTC
Wind
  • 060° at 5 KTS
Visibility
15 SM
Flight Rules
MVFR
Cloud Levels
  • Few at 700' AGL
  • Overcast at 1,100' AGL
Temperature
C / 36°F
Dewpoint
C / 32°F
Humidity
87%
Altimeter
29.97" Hg
Pressure
1014.92 hPa
Previous

3 hours ago

CYYR 210400Z 06005KT 15SM OVC013 03/00 A2998 RMK SC8 SLP155
Observed
May-21 @ 04:00 UTC
Wind
  • 060° at 5 KTS
Visibility
15 SM
Flight Rules
MVFR
Cloud Levels
  • Overcast at 1,300' AGL
Temperature
C / 37°F
Dewpoint
C / 32°F
Humidity
81%
Altimeter
29.98" Hg
Pressure
1015.22 hPa